Shrewsbury, Missouri
Current Conditions -  °F | °C
As of 11:53 PM on Sunday 21 Dec 2014 (Local Time) from KCPS Reporting Station
Overcast Overcast  
Wind Chill: 37°   Ceiling: 6000
Heat Index: 42°   Visibility: 10mi
Dew Point: 32°   Wind: 9mph
Humidity: 67%   Direction: 130°SE
Pressure: 29.93"   Gusts: NA
Location:  38.5887°N, 90.3511°W
Report Text: KCPS 220553Z AUTO 13008KT 10SM OVC060 06/00 A2993 RMK AO2 SLP138 T00560000 10061 20056 400670033 58016 TSNO
Loading
Personal Weather Stations






























Interactive Weather Map New forecast layout! Learn more

10-Day Weather Forecast

Advertisements
Track Severe Weather on mobile